Amity, Pennsylvania
Current Conditions -  °F | °C
As of 3:15 PM on Saturday 25 Oct 2014 (Local Time) from KAFJ Reporting Station
Clear Clear  
Wind Chill: 66°   Ceiling: Unl
Heat Index: 66°   Visibility: 10mi
Dew Point: 48°   Wind: 14mph
Humidity: 52%   Direction: 230°SW
Pressure: 29.84"   Gusts: 24mph
Location:  40.03°N, 80.2°W
Report Text: KAFJ 251915Z AUTO 23012G21KT 10SM CLR 19/09 A2984 RMK AO1
Loading
Personal Weather Stations






























Interactive Weather Map
Tropical Storm Tracking
New forecast layout! Learn more

10-Day Weather Forecast

Advertisements
Track Severe Weather on mobile